Aviation Digital Data Service (ADDS)

Output produced by METARs form (0320 UTC 20 March 2019)
found at http://www.aviationweather.gov/metar/data/
 
Forecast for: CYXE (SASKATOON AIRPOR, SK, CA)
Text: TAF CYXE 192338Z 2000/2024 28010KT P6SM FEW280
Forecast period: 0000 to 0400 UTC 20 March 2019
Forecast type: FROM: standard forecast or significant change
Winds: from the W (280 degrees) at 12 MPH (10 knots; 5.1 m/s)
Visibility: 6 or more miles 10+ km)
Ceiling: at least 12,000 feet AGL
Clouds: few clouds at 28000 feet AGL
Weather: no significant weather forecast for this period
Text: BECMG 2004/2006 21005KT RMK NXT FCST BY 200600Z
Forecast period: 0400 UTC 20 March 2019 to 0000 UTC 21 March 2019
Forecast type: BECOMING: Conditions expected to become as follows by 0600 UTC 20 March 2019
Winds: from the SSW (210 degrees) at 6 MPH (5 knots; 2.6 m/s)
Visibility: 6 or more miles 10+ km)
Ceiling: at least 12,000 feet AGL
Clouds: few clouds at 28000 feet AGL
Weather: no significant weather forecast for this period